Horsforth, United Kingdom
Current Conditions -  °F | °C
As of 12:20 PM on Sunday 25 Jan 2015 (Local Time) from EGNM Reporting Station
Scattered Clouds Scattered Clouds  
Wind Chill: 34°   Ceiling: Unl
Heat Index: 43°   Visibility: 6mi
Dew Point: 39°   Wind: 20mph
Humidity: 87%   Direction: 260°W
Pressure: 30.24"   Gusts: 32mph
Location:  53.84°N, 1.64°W
Report Text: EGNM 251220Z 26017G28KT 9999 SCT015 06/04 Q1024
Loading
Personal Weather Stations






























Interactive Weather Map New forecast layout! Learn more

10-Day Weather Forecast

Advertisements
Track Severe Weather on mobile